Time;durP1;ratioP1;P1;durP2;ratioP2;P2;SDS_P1;SDS_P2;PMS_P1;PMS_P2;Temp;Humidity;BMP_temperature;BMP_pressure;BME280_temperature;BME280_humidity;BME280_pressure;Samples;Min_cycle;Max_cycle;Signal;HPM_P1;HPM_P2
2021/12/30 00:01:42;;;;;;;5.47;2.80;;;;;;;9.39;100.00;95920.28;5016326;28;20033;-80
2021/12/30 00:04:08;;;;;;;5.00;2.80;;;;;;;9.43;100.00;95921.59;5019429;28;20045;-88
2021/12/30 00:06:40;;;;;;;5.17;2.77;;;;;;;9.49;100.00;95920.13;5033845;28;20052;-88
2021/12/30 00:09:09;;;;;;;4.70;2.53;;;;;;;9.47;100.00;95917.69;5017933;28;20038;-87
2021/12/30 00:12:02;;;;;;;3.93;2.20;;;;;;;9.56;100.00;95916.72;5018001;28;20033;-88
2021/12/30 00:14:28;;;;;;;3.43;1.90;;;;;;;9.57;100.00;95922.78;5037187;28;20032;-88
2021/12/30 00:16:53;;;;;;;2.93;1.70;;;;;;;9.65;100.00;95928.03;5025869;28;20037;-91
2021/12/30 00:19:19;;;;;;;2.97;1.67;;;;;;;9.65;100.00;95928.88;5004454;28;20049;-88
2021/12/30 00:21:45;;;;;;;3.10;1.40;;;;;;;9.75;100.00;95925.28;5044688;28;20021;-88
2021/12/30 00:24:11;;;;;;;2.17;1.30;;;;;;;9.70;100.00;95928.41;5049030;28;20036;-80
2021/12/30 00:26:44;;;;;;;2.27;1.30;;;;;;;9.72;100.00;95936.09;5035566;28;20068;-80
2021/12/30 00:29:13;;;;;;;2.35;1.48;;;;;;;9.74;100.00;95950.72;5019658;28;20034;-80
2021/12/30 00:31:39;;;;;;;2.80;1.33;;;;;;;9.68;100.00;95949.53;5021027;28;20568;-80
2021/12/30 00:34:04;;;;;;;3.07;1.40;;;;;;;9.67;100.00;95953.16;5025712;28;20108;-88
2021/12/30 00:36:30;;;;;;;2.47;1.60;;;;;;;9.68;100.00;95967.94;4993758;28;20049;-80
2021/12/30 00:39:03;;;;;;;2.87;1.40;;;;;;;9.65;100.00;95965.63;5028071;28;20396;-80
2021/12/30 00:41:29;;;;;;;2.95;1.35;;;;;;;9.68;100.00;95978.44;5026561;28;20032;-80
2021/12/30 00:43:55;;;;;;;2.13;1.30;;;;;;;9.70;100.00;95980.09;5009968;28;20515;-80
2021/12/30 00:46:20;;;;;;;2.07;1.23;;;;;;;9.73;100.00;95988.47;4995207;28;20753;-89
2021/12/30 00:48:46;;;;;;;2.40;1.03;;;;;;;9.81;100.00;95982.41;4996379;28;20037;-89
2021/12/30 00:51:12;;;;;;;2.07;0.93;;;;;;;9.90;100.00;95984.09;5009667;28;20044;-88
2021/12/30 00:53:38;;;;;;;2.90;1.00;;;;;;;9.96;100.00;95988.69;5027694;28;20041;-88
2021/12/30 00:56:13;;;;;;;1.90;0.70;;;;;;;10.00;100.00;95986.56;5030603;28;20081;-89
2021/12/30 00:58:52;;;;;;;1.47;0.80;;;;;;;10.09;100.00;95988.19;5016251;28;20565;-87
2021/12/30 01:01:18;;;;;;;1.97;1.00;;;;;;;10.12;100.00;95986.06;5022524;28;20085;-89
2021/12/30 01:03:43;;;;;;;1.60;0.80;;;;;;;10.09;100.00;96002.19;5033686;28;20128;-88
2021/12/30 01:06:09;;;;;;;1.90;0.80;;;;;;;10.12;100.00;95996.56;5028924;28;20460;-80
2021/12/30 01:09:09;;;;;;;1.40;0.90;;;;;;;10.14;100.00;95999.06;5020928;28;20753;-81
2021/12/30 01:11:35;;;;;;;2.30;0.63;;;;;;;10.18;100.00;95994.31;5007934;28;20029;-80
2021/12/30 01:14:08;;;;;;;3.10;0.90;;;;;;;10.20;100.00;96008.13;5023364;28;20048;-80
2021/12/30 01:16:41;;;;;;;1.98;0.73;;;;;;;10.18;100.00;96010.06;5014495;28;20090;-80
2021/12/30 01:19:53;;;;;;;2.45;0.90;;;;;;;10.23;100.00;96013.88;5043067;28;20036;-80
2021/12/30 01:21:54;;;;;;;2.03;0.73;;;;;;;10.21;100.00;96009.75;5012697;28;20041;-80
2021/12/30 01:24:20;;;;;;;2.80;1.00;;;;;;;10.20;100.00;96008.94;5038544;28;20040;-80
2021/12/30 01:26:46;;;;;;;3.33;1.07;;;;;;;10.20;100.00;96019.44;5006621;28;20047;-80
2021/12/30 01:29:15;;;;;;;2.40;0.87;;;;;;;10.23;100.00;96018.28;5019298;28;20116;-80
2021/12/30 01:31:41;;;;;;;1.93;1.00;;;;;;;10.20;100.00;96018.63;5013727;28;20044;-80
2021/12/30 01:34:07;;;;;;;3.30;0.97;;;;;;;10.14;100.00;96020.91;5015686;28;20479;-80
2021/12/30 01:36:33;;;;;;;3.87;1.10;;;;;;;10.20;100.00;96026.50;5050195;28;20745;-80
2021/12/30 01:38:58;;;;;;;2.37;0.90;;;;;;;10.18;100.00;96031.09;5042735;28;20060;-81
2021/12/30 01:41:25;;;;;;;1.67;1.00;;;;;;;10.12;100.00;96027.28;5031665;28;20041;-81
2021/12/30 01:43:51;;;;;;;2.53;1.10;;;;;;;10.17;100.00;96034.72;5013205;28;20029;-81
2021/12/30 01:46:17;;;;;;;3.50;1.10;;;;;;;10.19;100.00;96027.47;5024069;28;20096;-81
2021/12/30 01:48:43;;;;;;;4.30;1.20;;;;;;;10.20;100.00;96035.22;5034343;28;20030;-81
2021/12/30 01:51:09;;;;;;;3.23;0.80;;;;;;;10.20;100.00;96043.09;5014139;28;20029;-81
2021/12/30 01:53:36;;;;;;;3.90;1.40;;;;;;;10.14;100.00;96047.19;5031604;28;20108;-81
2021/12/30 01:56:04;;;;;;;2.43;1.03;;;;;;;10.20;100.00;96044.91;5019977;28;20041;-81
2021/12/30 01:58:31;;;;;;;2.67;1.03;;;;;;;10.12;100.00;96064.06;5004143;28;20129;-81
2021/12/30 02:00:57;;;;;;;3.30;1.23;;;;;;;10.04;100.00;96066.69;5029409;28;20380;-81
2021/12/30 02:03:27;;;;;;;3.80;1.07;;;;;;;10.02;100.00;96072.09;5029694;28;20033;-81
2021/12/30 02:05:53;;;;;;;3.10;0.83;;;;;;;9.98;100.00;96085.72;5025172;28;20092;-81
2021/12/30 02:08:20;;;;;;;2.07;1.10;;;;;;;9.96;100.00;96091.16;5019566;28;20033;-81
2021/12/30 02:10:49;;;;;;;3.97;1.07;;;;;;;9.94;100.00;96098.34;5038224;28;20116;-81
2021/12/30 02:13:16;;;;;;;3.80;1.03;;;;;;;9.89;100.00;96100.63;5039359;28;20043;-81
2021/12/30 02:15:42;;;;;;;1.97;0.80;;;;;;;9.89;100.00;96100.63;4996789;28;20048;-81
2021/12/30 02:18:08;;;;;;;3.20;1.10;;;;;;;9.87;100.00;96107.84;5032101;28;20483;-80
2021/12/30 02:20:45;;;;;;;3.77;1.60;;;;;;;9.80;100.00;96114.72;5029272;28;20039;-81
2021/12/30 02:23:17;;;;;;;3.50;1.13;;;;;;;9.75;100.00;96119.59;5039644;28;20678;-81
2021/12/30 02:25:43;;;;;;;2.10;0.70;;;;;;;9.79;100.00;96121.78;5012662;28;20056;-80
2021/12/30 02:28:13;;;;;;;5.17;0.90;;;;;;;9.74;100.00;96124.03;5030037;28;20036;-81
2021/12/30 02:30:39;;;;;;;3.47;0.90;;;;;;;9.83;100.00;96141.47;5001283;28;20072;-89
2021/12/30 02:33:05;;;;;;;3.43;1.00;;;;;;;9.86;100.00;96143.81;5038543;28;20081;-88
2021/12/30 02:35:32;;;;;;;3.57;0.97;;;;;;;9.81;100.00;96146.06;5029599;28;20060;-88
2021/12/30 02:37:59;;;;;;;5.13;0.90;;;;;;;9.85;100.00;96146.56;5030826;28;20037;-89
2021/12/30 02:40:26;;;;;;;4.67;1.10;;;;;;;9.87;100.00;96149.88;5036482;28;20040;-88
2021/12/30 02:42:52;;;;;;;3.70;0.90;;;;;;;9.86;100.00;96150.88;5030732;28;20128;-89
2021/12/30 02:45:20;;;;;;;3.90;0.87;;;;;;;9.82;100.00;96162.63;5031659;28;20044;-88
2021/12/30 02:47:46;;;;;;;4.33;1.00;;;;;;;9.83;100.00;96164.31;5019648;28;20033;-88
2021/12/30 02:50:12;;;;;;;7.37;1.00;;;;;;;9.82;100.00;96168.72;5012828;28;20056;-89
2021/12/30 02:52:38;;;;;;;3.73;1.07;;;;;;;9.88;100.00;96162.84;5005233;28;20098;-88
2021/12/30 02:55:04;;;;;;;3.80;1.13;;;;;;;9.85;100.00;96175.47;4994107;28;20044;-89
2021/12/30 02:57:30;;;;;;;8.13;1.63;;;;;;;9.83;100.00;96177.44;5013164;28;20037;-89
2021/12/30 02:59:56;;;;;;;2.70;1.13;;;;;;;9.89;100.00;96182.03;5019507;28;20040;-89
2021/12/30 03:02:22;;;;;;;5.10;1.30;;;;;;;9.90;100.00;96183.72;5042031;28;20045;-89
2021/12/30 03:04:48;;;;;;;3.03;0.90;;;;;;;9.87;100.00;96192.72;5015217;28;20041;-89
2021/12/30 03:07:18;;;;;;;4.83;1.20;;;;;;;9.86;100.00;96188.47;5029439;28;20522;-89
2021/12/30 03:09:45;;;;;;;2.90;1.10;;;;;;;9.88;100.00;96183.03;4999789;28;20037;-88
2021/12/30 03:12:11;;;;;;;3.00;1.30;;;;;;;9.93;100.00;96178.16;5040502;28;20672;-89
2021/12/30 03:14:42;;;;;;;4.00;1.03;;;;;;;9.91;100.00;96187.97;5031641;28;20037;-89
2021/12/30 03:17:11;;;;;;;2.47;1.20;;;;;;;9.98;100.00;96194.25;5023467;28;20041;-89
2021/12/30 03:19:37;;;;;;;2.23;0.93;;;;;;;9.98;100.00;96196.06;5033549;28;20045;-89
2021/12/30 03:22:04;;;;;;;4.30;1.43;;;;;;;9.90;100.00;96194.22;5006182;28;20072;-89
2021/12/30 03:24:29;;;;;;;4.00;1.20;;;;;;;9.94;100.00;96198.19;5019510;28;20029;-89
2021/12/30 03:26:55;;;;;;;4.07;1.20;;;;;;;10.01;100.00;96193.94;5033570;28;20084;-89
2021/12/30 03:29:21;;;;;;;3.60;1.37;;;;;;;10.04;100.00;96198.06;4999351;28;20037;-89
2021/12/30 03:31:47;;;;;;;6.00;1.47;;;;;;;9.99;100.00;96201.13;5040064;28;20479;-89
2021/12/30 03:34:24;;;;;;;3.30;0.87;;;;;;;9.97;100.00;96197.03;5008982;28;20037;-89
2021/12/30 03:36:50;;;;;;;3.37;1.17;;;;;;;9.93;100.00;96199.16;5027017;28;20584;-89
2021/12/30 03:39:16;;;;;;;2.93;1.10;;;;;;;9.89;100.00;96203.06;5014546;28;20037;-89
2021/12/30 03:41:45;;;;;;;4.53;1.10;;;;;;;9.94;100.00;96207.88;5016080;28;20060;-89
2021/12/30 03:44:14;;;;;;;5.73;1.30;;;;;;;9.91;100.00;96220.31;5005912;28;20106;-89
2021/12/30 03:46:40;;;;;;;4.07;1.10;;;;;;;9.90;100.00;96223.94;5029508;28;20609;-87
2021/12/30 03:49:06;;;;;;;4.43;1.30;;;;;;;9.99;100.00;96234.47;5031761;28;20033;-89
2021/12/30 03:51:38;;;;;;;5.97;1.40;;;;;;;9.89;100.00;96232.81;5026082;28;20139;-88
2021/12/30 03:54:05;;;;;;;6.40;1.37;;;;;;;9.95;100.00;96239.22;5034672;28;20032;-89
2021/12/30 03:56:31;;;;;;;3.67;1.40;;;;;;;9.91;100.00;96251.03;5049336;28;20265;-89
2021/12/30 03:59:00;;;;;;;4.80;1.10;;;;;;;9.91;100.00;96243.13;5048133;28;20036;-89
2021/12/30 04:01:27;;;;;;;3.07;1.00;;;;;;;9.90;100.00;96250.19;5028555;28;20114;-89
2021/12/30 04:03:57;;;;;;;2.83;1.00;;;;;;;9.90;100.00;96259.88;5013330;28;20419;-88
2021/12/30 04:06:23;;;;;;;6.57;1.53;;;;;;;9.89;100.00;96263.47;5014103;28;20048;-89
2021/12/30 04:08:58;;;;;;;6.63;1.30;;;;;;;9.88;100.00;96267.91;5030367;28;20025;-88
2021/12/30 04:11:26;;;;;;;3.17;0.90;;;;;;;9.88;100.00;96270.53;5037300;28;20067;-88
2021/12/30 04:13:52;;;;;;;4.57;1.10;;;;;;;9.89;100.00;96272.19;5031909;28;20044;-88
2021/12/30 04:16:25;;;;;;;2.67;1.00;;;;;;;9.85;100.00;96277.91;5031662;28;20036;-88
2021/12/30 04:18:54;;;;;;;5.27;1.00;;;;;;;9.83;100.00;96275.44;5028498;28;20041;-88
2021/12/30 04:21:29;;;;;;;1.97;0.77;;;;;;;9.90;100.00;96280.91;5039830;28;20036;-88
2021/12/30 04:23:56;;;;;;;4.90;1.20;;;;;;;9.87;100.00;96287.28;5006823;28;20037;-88
2021/12/30 04:26:22;;;;;;;3.53;0.97;;;;;;;9.86;100.00;96284.81;5030309;28;20033;-88
2021/12/30 04:28:48;;;;;;;4.77;0.90;;;;;;;9.84;100.00;96279.69;5027468;28;20033;-88
2021/12/30 04:31:15;;;;;;;2.67;0.90;;;;;;;9.83;100.00;96280.69;5035024;28;20041;-89
2021/12/30 04:33:42;;;;;;;3.23;1.00;;;;;;;9.96;100.00;96285.53;5019634;28;20037;-88
2021/12/30 04:36:08;;;;;;;2.60;0.87;;;;;;;9.87;100.00;96286.47;5043363;28;20029;-88
2021/12/30 04:38:35;;;;;;;4.83;1.00;;;;;;;9.87;100.00;96296.97;5061952;28;20044;-89
2021/12/30 04:41:01;;;;;;;5.27;1.33;;;;;;;9.79;100.00;96291.63;5044099;28;20042;-89
2021/12/30 04:43:27;;;;;;;6.30;1.20;;;;;;;9.70;100.00;96296.03;5030747;28;20055;-88
2021/12/30 04:45:53;;;;;;;4.80;1.57;;;;;;;9.63;100.00;96300.22;5029940;28;20101;-89
2021/12/30 04:48:27;;;;;;;1.70;0.70;;;;;;;9.60;100.00;96301.34;5032331;28;20037;-88
2021/12/30 04:50:55;;;;;;;2.87;0.90;;;;;;;9.56;100.00;96301.81;5043545;28;20041;-89
2021/12/30 04:53:21;;;;;;;2.57;1.00;;;;;;;9.53;100.00;96300.31;5035286;28;20403;-88
2021/12/30 04:55:48;;;;;;;3.13;1.00;;;;;;;9.56;100.00;96312.31;5034701;28;20029;-89
2021/12/30 04:58:15;;;;;;;2.20;0.80;;;;;;;9.57;100.00;96312.16;5006894;28;20065;-89
2021/12/30 05:00:42;;;;;;;5.63;0.87;;;;;;;9.53;100.00;96325.75;5021028;28;20037;-88
2021/12/30 05:03:10;;;;;;;2.80;0.80;;;;;;;9.48;100.00;96322.72;5037259;28;20039;-89
2021/12/30 05:05:38;;;;;;;2.43;0.70;;;;;;;9.46;100.00;96322.91;5031757;28;20034;-88
2021/12/30 05:08:04;;;;;;;3.10;0.87;;;;;;;9.43;100.00;96331.06;5002854;28;20029;-89
2021/12/30 05:10:30;;;;;;;3.37;1.10;;;;;;;9.44;100.00;96327.47;5032020;28;20472;-88
2021/12/30 05:12:56;;;;;;;3.53;0.90;;;;;;;9.44;100.00;96330.06;5035325;28;20034;-89
2021/12/30 05:15:22;;;;;;;3.93;1.43;;;;;;;9.40;100.00;96326.13;5023601;28;20099;-89
2021/12/30 05:18:09;;;;;;;2.43;1.10;;;;;;;9.41;100.00;96333.00;5021374;28;20151;-88
2021/12/30 05:20:38;;;;;;;2.97;1.30;;;;;;;9.40;100.00;96331.38;5025477;28;20069;-87
2021/12/30 05:23:08;;;;;;;2.87;1.23;;;;;;;9.37;100.00;96339.53;4996174;28;20053;-88
2021/12/30 05:25:37;;;;;;;2.90;1.23;;;;;;;9.34;100.00;96350.31;5005712;28;20033;-88
2021/12/30 05:28:03;;;;;;;2.37;1.17;;;;;;;9.37;100.00;96353.47;5031423;28;20041;-87
2021/12/30 05:30:29;;;;;;;6.53;2.13;;;;;;;9.36;100.00;96359.72;5031811;28;20086;-88
2021/12/30 05:32:57;;;;;;;4.50;2.50;;;;;;;9.35;100.00;96349.34;5035770;28;20071;-88
2021/12/30 05:35:23;;;;;;;2.23;1.30;;;;;;;9.38;100.00;96363.00;5028517;28;20049;-88
2021/12/30 05:37:50;;;;;;;5.00;2.20;;;;;;;9.36;100.00;96359.72;5012580;28;20136;-89
2021/12/30 05:40:19;;;;;;;3.33;1.83;;;;;;;9.39;100.00;96366.47;5004593;28;20041;-88
2021/12/30 05:42:46;;;;;;;2.20;1.50;;;;;;;9.34;100.00;96369.53;5025969;28;20100;-88
2021/12/30 05:45:17;;;;;;;3.77;2.13;;;;;;;9.36;100.00;96372.00;5012503;28;20041;-88
2021/12/30 05:47:48;;;;;;;6.27;2.03;;;;;;;9.40;100.00;96358.44;5030797;28;21955;-88
2021/12/30 05:50:19;;;;;;;3.17;1.77;;;;;;;9.43;100.00;96359.94;5033959;28;20533;-87
2021/12/30 05:52:45;;;;;;;4.03;2.07;;;;;;;9.43;100.00;96362.56;5028939;28;20057;-88
2021/12/30 05:55:11;;;;;;;4.77;1.43;;;;;;;9.43;100.00;96367.81;5031645;28;20487;-87
2021/12/30 05:57:37;;;;;;;4.07;1.63;;;;;;;9.44;100.00;96364.19;5013778;28;20041;-88
2021/12/30 06:00:06;;;;;;;2.67;1.60;;;;;;;9.47;100.00;96369.16;4999353;28;20025;-87
2021/12/30 06:02:31;;;;;;;3.77;1.60;;;;;;;9.49;100.00;96367.22;5023282;28;20511;-88
2021/12/30 06:04:57;;;;;;;2.60;1.70;;;;;;;9.47;100.00;96373.59;5002452;28;20132;-87
2021/12/30 06:07:23;;;;;;;3.70;1.40;;;;;;;9.51;100.00;96367.06;5017941;28;20043;-88
2021/12/30 06:09:49;;;;;;;3.27;1.70;;;;;;;9.50;100.00;96378.53;5019057;28;20096;-88
2021/12/30 06:12:15;;;;;;;2.73;1.90;;;;;;;9.50;100.00;96368.88;5036699;28;20035;-88
2021/12/30 06:14:41;;;;;;;2.00;1.33;;;;;;;9.51;100.00;96377.56;5037698;28;20112;-88
2021/12/30 06:17:07;;;;;;;4.43;2.20;;;;;;;9.52;100.00;96377.41;5042863;28;20055;-87
2021/12/30 06:19:33;;;;;;;3.97;2.07;;;;;;;9.52;100.00;96372.16;5020024;28;20087;-88
2021/12/30 06:21:59;;;;;;;3.63;2.13;;;;;;;9.56;100.00;96372.69;5035473;28;20025;-88
2021/12/30 06:24:25;;;;;;;5.60;2.33;;;;;;;9.55;100.00;96382.34;5040016;28;20347;-88
2021/12/30 06:26:51;;;;;;;3.13;2.30;;;;;;;9.57;100.00;96377.78;5022430;28;20025;-88
2021/12/30 06:29:17;;;;;;;3.60;2.10;;;;;;;9.62;100.00;96372.94;5016351;28;20108;-88
2021/12/30 06:31:46;;;;;;;3.30;2.00;;;;;;;9.61;100.00;96381.75;5010033;28;20140;-88
2021/12/30 06:34:12;;;;;;;4.87;2.20;;;;;;;9.63;100.00;96369.31;5015027;28;20111;-88
2021/12/30 06:36:37;;;;;;;3.97;2.40;;;;;;;9.59;100.00;96370.59;5031950;28;20577;-88
2021/12/30 06:39:04;;;;;;;4.70;2.50;;;;;;;9.65;100.00;96372.59;5038887;28;20068;-88
2021/12/30 06:41:30;;;;;;;7.07;3.10;;;;;;;9.70;100.00;96374.81;5023432;28;20018;-88
2021/12/30 06:43:56;;;;;;;6.90;4.33;;;;;;;9.68;100.00;96380.19;5010611;28;20045;-88
2021/12/30 06:46:23;;;;;;;4.40;2.97;;;;;;;9.65;100.00;96377.84;5032528;28;20118;-88
2021/12/30 06:48:50;;;;;;;5.53;2.97;;;;;;;9.67;100.00;96386.41;5020666;28;20044;-88
2021/12/30 06:51:21;;;;;;;6.40;3.63;;;;;;;9.68;100.00;96382.00;5024450;28;20130;-89
2021/12/30 06:53:54;;;;;;;7.23;2.70;;;;;;;9.71;100.00;96386.94;5025587;28;20033;-88
2021/12/30 06:56:24;;;;;;;4.55;2.40;;;;;;;9.71;100.00;96383.50;5010055;28;20556;-88
2021/12/30 06:58:50;;;;;;;3.67;2.30;;;;;;;9.70;100.00;96384.47;4994033;28;20484;-88
2021/12/30 07:01:16;;;;;;;3.93;2.37;;;;;;;9.79;100.00;96388.81;5023522;28;20033;-88
2021/12/30 07:03:42;;;;;;;3.53;2.10;;;;;;;9.76;100.00;96389.97;5042025;28;20052;-88
2021/12/30 07:06:08;;;;;;;4.53;2.33;;;;;;;9.77;100.00;96393.41;5014399;28;20026;-88
2021/12/30 07:08:34;;;;;;;3.33;2.00;;;;;;;9.73;100.00;96400.75;5034866;28;20138;-89
2021/12/30 07:10:59;;;;;;;2.53;1.77;;;;;;;9.77;100.00;96411.78;5020784;28;20049;-87
2021/12/30 07:13:25;;;;;;;4.50;1.87;;;;;;;9.75;100.00;96409.28;5011852;28;20029;-89
2021/12/30 07:15:53;;;;;;;2.57;1.20;;;;;;;9.77;100.00;96406.53;5013556;28;20135;-89
2021/12/30 07:18:19;;;;;;;3.43;1.30;;;;;;;9.78;100.00;96408.19;5047582;28;20029;-89
2021/12/30 07:20:45;;;;;;;2.67;1.37;;;;;;;9.82;100.00;96417.41;5013622;28;20040;-88
2021/12/30 07:23:11;;;;;;;2.60;0.87;;;;;;;9.86;100.00;96424.84;5014824;28;20041;-88
2021/12/30 07:25:36;;;;;;;2.37;1.23;;;;;;;9.91;100.00;96429.66;5021732;28;20033;-88
2021/12/30 07:28:18;;;;;;;1.73;0.77;;;;;;;9.92;100.00;96420.78;5036460;28;20137;-88
2021/12/30 07:30:44;;;;;;;1.53;0.90;;;;;;;9.92;100.00;96423.41;5019289;28;20158;-89
2021/12/30 07:33:10;;;;;;;2.10;0.93;;;;;;;9.92;100.00;96426.03;5039629;28;20111;-89
2021/12/30 07:35:36;;;;;;;4.83;2.43;;;;;;;9.96;100.00;96432.66;4996962;28;20045;-89
2021/12/30 07:38:12;;;;;;;4.60;0.70;;;;;;;9.95;100.00;96436.25;5017948;28;20042;-88
2021/12/30 07:40:38;;;;;;;2.07;1.27;;;;;;;9.95;100.00;96440.69;5011362;28;20041;-87
2021/12/30 07:43:06;;;;;;;1.43;0.93;;;;;;;9.98;100.00;96441.19;5011686;28;20432;-86
2021/12/30 07:45:31;;;;;;;1.97;1.10;;;;;;;9.97;100.00;96439.56;4988868;28;20041;-86
2021/12/30 07:47:57;;;;;;;1.90;1.10;;;;;;;10.00;100.00;96438.44;5037441;28;20055;-87
2021/12/30 07:50:23;;;;;;;2.03;1.10;;;;;;;9.98;100.00;96451.72;5033457;28;20098;-87
2021/12/30 07:52:50;;;;;;;2.90;1.13;;;;;;;9.97;100.00;96450.06;5023675;28;20063;-87
2021/12/30 07:55:16;;;;;;;2.00;1.27;;;;;;;9.97;100.00;96459.75;5021230;28;20033;-87
2021/12/30 07:57:42;;;;;;;1.97;0.90;;;;;;;9.95;100.00;96456.44;5015106;28;20028;-88
2021/12/30 08:00:13;;;;;;;2.33;1.37;;;;;;;9.95;100.00;96459.88;5013039;28;20491;-88
2021/12/30 08:02:44;;;;;;;2.30;1.20;;;;;;;9.93;100.00;96461.84;5021349;28;20124;-87
2021/12/30 08:05:16;;;;;;;3.93;1.00;;;;;;;9.97;100.00;96465.84;5022669;28;20033;-87
2021/12/30 08:07:47;;;;;;;1.77;1.10;;;;;;;9.99;100.00;96469.13;5044048;28;20028;-88
2021/12/30 08:10:16;;;;;;;1.77;0.97;;;;;;;10.00;100.00;96472.59;5025157;28;20095;-87
2021/12/30 08:16:30;;;;;;;1.67;0.70;;;;;;;10.00;100.00;96469.97;5039705;28;20032;-87
2021/12/30 08:18:57;;;;;;;6.57;3.33;;;;;;;10.03;100.00;96490.69;5033022;28;20033;-87
2021/12/30 08:21:23;;;;;;;5.40;1.40;;;;;;;10.03;100.00;96475.75;5014046;28;20479;-87
2021/12/30 08:23:51;;;;;;;1.63;0.70;;;;;;;10.05;100.00;96478.22;5012518;28;20037;-87
2021/12/30 08:26:18;;;;;;;1.33;0.77;;;;;;;10.06;100.00;96495.63;5021316;28;20563;-87
2021/12/30 08:28:45;;;;;;;1.07;0.60;;;;;;;10.08;100.00;96491.88;5036491;28;20021;-87
2021/12/30 08:31:12;;;;;;;1.60;1.03;;;;;;;10.11;100.00;96488.13;5035090;28;20477;-87
2021/12/30 08:33:38;;;;;;;1.00;0.60;;;;;;;10.09;100.00;96485.66;5028358;28;20470;-87
2021/12/30 08:36:04;;;;;;;0.87;0.63;;;;;;;10.10;100.00;96486.50;4993531;28;20041;-87
2021/12/30 08:38:29;;;;;;;2.43;1.30;;;;;;;10.13;100.00;96486.19;5022299;28;20087;-87
2021/12/30 08:40:56;;;;;;;0.60;0.60;;;;;;;10.11;100.00;96488.94;5017357;28;20037;-86
2021/12/30 08:43:22;;;;;;;1.40;0.80;;;;;;;10.17;100.00;96486.72;5031623;28;20096;-88
2021/12/30 08:45:49;;;;;;;1.47;1.00;;;;;;;10.15;100.00;96484.22;5041532;28;20032;-88
2021/12/30 08:48:15;;;;;;;1.67;1.00;;;;;;;10.20;100.00;96489.03;5031505;28;20033;-88
2021/12/30 08:50:42;;;;;;;4.53;1.10;;;;;;;10.20;100.00;96487.25;5035498;28;20716;-88
2021/12/30 08:53:10;;;;;;;0.90;0.70;;;;;;;10.21;100.00;96495.94;5013971;28;20084;-88
2021/12/30 08:55:36;;;;;;;1.77;1.00;;;;;;;10.20;100.00;96489.88;5033922;28;20056;-88
2021/12/30 08:58:03;;;;;;;1.83;0.90;;;;;;;10.22;100.00;96479.19;5039296;28;20034;-88
2021/12/30 09:00:33;;;;;;;1.87;1.10;;;;;;;10.21;100.00;96478.38;5016189;28;20040;-88
2021/12/30 09:03:04;;;;;;;1.53;0.83;;;;;;;10.25;100.00;96481.50;5031600;28;20040;-88
2021/12/30 09:05:32;;;;;;;1.77;1.00;;;;;;;10.23;100.00;96478.19;5014088;28;20108;-87
2021/12/30 09:07:58;;;;;;;0.80;0.67;;;;;;;10.22;100.00;96484.44;5035861;28;20068;-87
2021/12/30 09:10:25;;;;;;;1.90;1.20;;;;;;;10.23;100.00;96484.31;4996986;28;20029;-87
2021/12/30 09:12:53;;;;;;;2.20;1.00;;;;;;;10.26;100.00;96485.81;5036064;28;20021;-88
2021/12/30 09:15:24;;;;;;;6.33;2.37;;;;;;;10.25;100.00;96494.66;5024906;28;20484;-88
2021/12/30 09:17:52;;;;;;;1.37;0.93;;;;;;;10.26;100.00;96486.66;5014746;28;20065;-88
2021/12/30 09:20:21;;;;;;;1.03;0.80;;;;;;;10.32;100.00;96506.25;5022078;28;20501;-88
2021/12/30 09:22:47;;;;;;;1.83;0.93;;;;;;;10.32;100.00;96506.25;5041495;28;20096;-87
2021/12/30 09:25:19;;;;;;;1.50;0.90;;;;;;;10.34;100.00;96501.69;5029127;28;20029;-88
2021/12/30 09:27:47;;;;;;;2.20;0.90;;;;;;;10.36;100.00;96500.56;5037407;28;20116;-88
2021/12/30 09:30:15;;;;;;;1.57;0.80;;;;;;;10.36;100.00;96507.59;5024563;28;20033;-88
2021/12/30 09:32:50;;;;;;;3.13;1.70;;;;;;;10.36;100.00;96508.44;5034006;28;20052;-88
2021/12/30 09:35:37;;;;;;;1.63;1.20;;;;;;;10.38;100.00;96510.91;5026841;28;20068;-88
2021/12/30 09:38:06;;;;;;;1.50;0.90;;;;;;;10.41;100.00;96521.13;4997977;28;20038;-88
2021/12/30 09:40:35;;;;;;;2.53;1.27;;;;;;;10.46;100.00;96518.88;5016022;28;20037;-89
2021/12/30 09:43:05;;;;;;;5.13;2.47;;;;;;;10.55;100.00;96525.03;5031657;28;20041;-86
2021/12/30 09:45:33;;;;;;;2.77;1.23;;;;;;;10.55;100.00;96523.22;5020832;28;20379;-89
2021/12/30 09:48:03;;;;;;;3.33;1.40;;;;;;;10.56;100.00;96518.78;5046420;28;20040;-89
2021/12/30 09:50:35;;;;;;;3.90;1.73;;;;;;;10.55;100.00;96515.31;4999902;28;20120;-90
2021/12/30 09:53:01;;;;;;;3.30;1.30;;;;;;;10.56;100.00;96524.88;5033058;28;20083;-88
2021/12/30 09:55:28;;;;;;;2.27;1.40;;;;;;;10.59;100.00;96519.28;5026198;28;20036;-89
2021/12/30 09:57:55;;;;;;;3.37;1.40;;;;;;;10.60;100.00;96514.88;5036075;28;20462;-89
2021/12/30 10:00:22;;;;;;;2.40;1.33;;;;;;;10.59;100.00;96519.28;5042579;28;20035;-89
2021/12/30 10:02:49;;;;;;;3.23;1.80;;;;;;;10.62;100.00;96511.09;5012855;28;20527;-89
2021/12/30 10:05:24;;;;;;;1.43;1.20;;;;;;;10.69;100.00;96518.38;4996498;28;20041;-90
2021/12/30 10:07:49;;;;;;;1.97;1.10;;;;;;;10.69;100.00;96511.31;5029337;28;20502;-89
2021/12/30 10:10:31;;;;;;;1.20;0.80;;;;;;;10.73;100.00;96515.31;5011477;28;20045;-90
2021/12/30 10:12:58;;;;;;;1.67;0.80;;;;;;;10.74;100.00;96519.59;5031650;28;20091;-90
2021/12/30 10:15:24;;;;;;;1.77;0.93;;;;;;;10.79;100.00;96519.13;5014750;28;20080;-90
2021/12/30 10:18:01;;;;;;;1.03;0.73;;;;;;;10.80;100.00;96521.63;5034366;28;20573;-90
2021/12/30 10:20:29;;;;;;;1.33;0.80;;;;;;;10.82;100.00;96522.25;5024248;28;20045;-89
2021/12/30 10:23:06;;;;;;;2.27;1.00;;;;;;;10.85;100.00;96526.41;5020233;28;20040;-89
2021/12/30 10:25:38;;;;;;;1.50;1.23;;;;;;;10.84;100.00;96532.66;5035286;28;20049;-89
2021/12/30 10:28:35;;;;;;;2.97;1.13;;;;;;;10.83;100.00;96536.25;5031634;28;20032;-89
2021/12/30 10:31:10;;;;;;;6.00;2.93;;;;;;;10.82;100.00;96543.31;5010023;28;20040;-88
2021/12/30 10:33:48;;;;;;;2.23;1.40;;;;;;;10.84;100.00;96551.88;5031672;28;20066;-89
2021/12/30 10:36:24;;;;;;;1.77;1.20;;;;;;;10.84;100.00;96546.63;5029610;28;20565;-89
2021/12/30 10:38:51;;;;;;;2.93;1.40;;;;;;;10.84;100.00;96543.19;5032129;28;20034;-89
2021/12/30 10:41:21;;;;;;;3.47;2.10;;;;;;;10.89;100.00;96545.34;5030910;28;20087;-89
2021/12/30 10:43:52;;;;;;;2.50;1.40;;;;;;;10.90;100.00;96547.84;5029127;28;20187;-89
2021/12/30 10:46:24;;;;;;;4.73;2.63;;;;;;;10.89;100.00;96551.41;5031917;28;20034;-89
2021/12/30 10:48:52;;;;;;;3.03;1.90;;;;;;;10.91;100.00;96549.47;5029056;28;20107;-88
2021/12/30 10:51:20;;;;;;;2.57;1.80;;;;;;;10.89;100.00;96559.31;5023626;28;20030;-88
2021/12/30 10:53:47;;;;;;;1.40;0.93;;;;;;;10.92;100.00;96556.38;5036078;28;20107;-89
2021/12/30 10:56:30;;;;;;;1.60;1.00;;;;;;;10.97;100.00;96554.13;4990069;28;20044;-89
2021/12/30 10:59:20;;;;;;;1.70;0.90;;;;;;;11.01;100.00;96555.47;5009175;28;20052;-89
2021/12/30 11:01:51;;;;;;;1.90;0.90;;;;;;;11.04;100.00;96542.00;5028590;28;20069;-88
2021/12/30 11:04:17;;;;;;;4.33;2.30;;;;;;;11.13;100.00;96547.31;5009088;28;20037;-88
2021/12/30 11:06:43;;;;;;;4.47;1.83;;;;;;;11.15;100.00;96546.19;5030002;28;20095;-89
2021/12/30 11:09:15;;;;;;;3.40;1.50;;;;;;;11.20;100.00;96556.22;5039191;28;20041;-89
2021/12/30 11:11:47;;;;;;;3.90;2.08;;;;;;;11.22;100.00;96554.28;5015752;28;20029;-89
2021/12/30 11:14:26;;;;;;;4.37;1.30;;;;;;;11.23;100.00;96550.66;5012868;28;20102;-89
2021/12/30 11:17:09;;;;;;;4.23;1.87;;;;;;;11.24;100.00;96547.06;5036502;28;20033;-90
2021/12/30 11:19:52;;;;;;;2.00;1.05;;;;;;;11.25;100.00;96549.53;5023140;28;20064;-89
2021/12/30 11:23:03;;;;;;;1.10;0.80;;;;;;;11.30;100.00;96552.53;5021227;28;20060;-88
2021/12/30 11:25:34;;;;;;;5.27;2.67;;;;;;;11.33;100.00;96539.06;5030490;28;20037;-87
2021/12/30 11:28:02;;;;;;;2.27;1.10;;;;;;;11.43;100.00;96546.81;5032376;28;20060;-89
2021/12/30 11:30:28;;;;;;;0.90;0.70;;;;;;;11.44;100.00;96537.97;5014869;28;20033;-89
2021/12/30 11:33:27;;;;;;;2.13;0.80;;;;;;;11.50;100.00;96539.13;5017093;28;20478;-90
2021/12/30 11:35:54;;;;;;;1.37;0.63;;;;;;;11.46;100.00;96545.69;5012334;28;20131;-89
2021/12/30 11:38:27;;;;;;;1.57;0.80;;;;;;;11.50;100.00;96539.97;5039601;28;20036;-88
2021/12/30 11:40:58;;;;;;;2.00;1.17;;;;;;;11.53;100.00;96544.88;5057501;28;20032;-90